Time;durP1;ratioP1;P1;durP2;ratioP2;P2;SDS_P1;SDS_P2;PMS_P1;PMS_P2;Temp;Humidity;BMP_temperature;BMP_pressure;BME280_temperature;BME280_humidity;BME280_pressure;Samples;Min_cycle;Max_cycle;Signal;HPM_P1;HPM_P2
2022/04/12 00:00:00;;;;;;;12.43;6.43;;;;;;;2.55;100.00;99170.88;4975402;28;20086;-63
2022/04/12 00:02:29;;;;;;;11.88;5.85;;;;;;;2.45;100.00;99160.06;4991777;28;20344;-62
2022/04/12 00:04:55;;;;;;;13.10;7.20;;;;;;;2.38;100.00;99150.78;4992911;28;20518;-63
2022/04/12 00:07:21;;;;;;;13.27;7.15;;;;;;;2.36;100.00;99155.38;4959185;28;20046;-61
2022/04/12 00:09:47;;;;;;;13.38;6.68;;;;;;;2.30;100.00;99139.81;4991564;28;20050;-62
2022/04/12 00:12:15;;;;;;;12.38;7.00;;;;;;;2.30;100.00;99118.47;4992862;28;20049;-62
2022/04/12 00:14:41;;;;;;;13.27;6.97;;;;;;;2.31;100.00;99126.38;4987148;28;20039;-62
2022/04/12 00:19:52;;;;;;;12.52;6.90;;;;;;;2.29;100.00;99116.78;4973416;28;20057;-61
2022/04/12 00:22:18;;;;;;;12.98;6.78;;;;;;;2.16;100.00;99084.84;4971840;28;20521;-61
2022/04/12 00:24:45;;;;;;;11.50;6.88;;;;;;;2.29;100.00;99103.44;4955948;28;20054;-61
2022/04/12 00:27:11;;;;;;;12.98;7.22;;;;;;;2.29;100.00;99116.78;4971851;28;20070;-62
2022/04/12 00:29:36;;;;;;;12.25;6.75;;;;;;;2.25;100.00;99104.63;4972505;28;20098;-62
2022/04/12 00:32:02;;;;;;;11.68;6.32;;;;;;;2.35;100.00;99121.69;4971531;28;20116;-61
2022/04/12 00:34:28;;;;;;;12.75;7.22;;;;;;;2.29;100.00;99114.09;4972965;28;20079;-62
2022/04/12 00:36:54;;;;;;;12.70;6.55;;;;;;;2.34;100.00;99109.28;4972995;28;20043;-62
2022/04/12 00:39:19;;;;;;;12.60;6.88;;;;;;;2.30;100.00;99094.47;4973040;28;20093;-62
2022/04/12 00:41:45;;;;;;;11.85;6.47;;;;;;;2.30;100.00;99102.47;4971413;28;20470;-62
2022/04/12 00:44:11;;;;;;;12.50;6.43;;;;;;;2.28;100.00;99077.75;4972967;28;20467;-62
2022/04/12 00:46:37;;;;;;;12.02;6.22;;;;;;;2.24;100.00;99060.28;4971592;28;20057;-62
2022/04/12 00:49:03;;;;;;;12.60;6.97;;;;;;;2.35;100.00;99068.34;4972640;28;20046;-62
2022/04/12 00:51:28;;;;;;;12.13;6.88;;;;;;;2.27;100.00;99065.38;4972557;28;20499;-63
2022/04/12 00:53:56;;;;;;;11.73;5.97;;;;;;;2.30;100.00;99073.13;4955011;28;20035;-62
2022/04/12 00:56:22;;;;;;;11.90;6.25;;;;;;;2.33;100.00;99075.59;4972659;28;20058;-63
2022/04/12 00:58:49;;;;;;;11.55;6.50;;;;;;;2.39;100.00;99070.66;4971223;28;20088;-61
2022/04/12 01:01:15;;;;;;;10.85;6.00;;;;;;;2.39;100.00;99081.31;4984570;28;20530;-62
2022/04/12 01:03:42;;;;;;;11.80;5.75;;;;;;;2.34;100.00;99061.28;4970985;28;20051;-62
2022/04/12 01:06:08;;;;;;;11.27;5.90;;;;;;;2.37;100.00;99071.72;4972559;28;20049;-62
2022/04/12 01:08:36;;;;;;;9.90;5.15;;;;;;;2.39;100.00;99075.13;4971024;28;20137;-63
2022/04/12 01:11:07;;;;;;;10.43;5.57;;;;;;;2.41;100.00;99073.19;4972893;28;20049;-63
2022/04/12 01:13:33;;;;;;;10.57;5.50;;;;;;;2.34;100.00;99051.47;4971357;28;20051;-62
2022/04/12 01:15:59;;;;;;;10.73;5.43;;;;;;;2.54;100.00;99084.66;4972395;28;20047;-62
2022/04/12 01:18:25;;;;;;;9.35;4.65;;;;;;;2.47;100.00;99078.06;4972040;28;20039;-62
2022/04/12 01:20:51;;;;;;;10.40;5.30;;;;;;;2.48;100.00;99085.09;4972113;28;20420;-61
2022/04/12 01:23:36;;;;;;;10.48;5.88;;;;;;;2.51;100.00;99073.38;4971597;28;20050;-62
2022/04/12 01:26:02;;;;;;;10.52;5.30;;;;;;;2.45;100.00;99063.16;4972186;28;20058;-62
2022/04/12 01:28:28;;;;;;;10.30;4.97;;;;;;;2.51;100.00;99060.88;4971900;28;20495;-62
2022/04/12 01:30:54;;;;;;;10.23;5.30;;;;;;;2.35;100.00;99031.00;4972114;28;20482;-63
2022/04/12 01:33:20;;;;;;;10.00;5.55;;;;;;;2.44;100.00;99046.28;4971949;28;20055;-62
2022/04/12 01:35:46;;;;;;;9.73;5.38;;;;;;;2.48;100.00;99031.75;4972254;28;20109;-62
2022/04/12 01:38:12;;;;;;;10.15;5.25;;;;;;;2.44;100.00;99040.97;4954675;28;20042;-62
2022/04/12 01:40:38;;;;;;;10.60;4.97;;;;;;;2.50;100.00;99027.16;4971695;28;20070;-61
2022/04/12 01:43:04;;;;;;;10.07;5.72;;;;;;;2.52;100.00;99033.22;4970127;28;20074;-63
2022/04/12 01:45:29;;;;;;;10.23;5.57;;;;;;;2.48;100.00;99026.41;4971921;28;20070;-61
2022/04/12 01:47:58;;;;;;;10.90;5.82;;;;;;;2.48;100.00;99042.44;4971576;28;20121;-62
2022/04/12 01:50:24;;;;;;;10.15;5.65;;;;;;;2.55;100.00;99054.34;4954773;28;20051;-62
2022/04/12 01:52:50;;;;;;;9.75;5.38;;;;;;;2.55;100.00;99042.81;4970365;28;20051;-62
2022/04/12 01:55:16;;;;;;;10.32;5.22;;;;;;;2.44;100.00;99024.94;4970424;28;20089;-62
2022/04/12 01:57:42;;;;;;;10.23;5.78;;;;;;;2.55;100.00;99038.31;4972023;28;20049;-63
2022/04/12 02:00:09;;;;;;;10.48;5.53;;;;;;;2.38;100.00;99004.09;4972232;28;20050;-63
2022/04/12 02:02:40;;;;;;;10.45;5.72;;;;;;;2.54;100.00;99025.97;4972077;28;20046;-62
2022/04/12 02:05:07;;;;;;;10.43;5.95;;;;;;;2.53;100.00;99021.59;4971835;28;20074;-61
2022/04/12 02:07:33;;;;;;;11.02;5.13;;;;;;;2.58;100.00;99032.75;4970444;28;20446;-62
2022/04/12 02:09:58;;;;;;;9.20;5.15;;;;;;;2.49;100.00;99017.47;4972025;28;20141;-62
2022/04/12 02:12:24;;;;;;;11.02;5.65;;;;;;;2.57;100.00;99015.06;4970420;28;20059;-62
2022/04/12 02:14:50;;;;;;;11.25;6.20;;;;;;;2.61;100.00;99008.53;4970519;28;20078;-62
2022/04/12 02:17:16;;;;;;;11.75;6.47;;;;;;;2.61;100.00;98989.84;4972018;28;20065;-63
2022/04/12 02:19:41;;;;;;;11.38;6.10;;;;;;;2.57;100.00;99001.72;4972010;28;20085;-63
2022/04/12 02:22:08;;;;;;;11.75;6.53;;;;;;;2.58;100.00;99021.25;4971580;28;20038;-61
2022/04/12 02:24:34;;;;;;;12.57;6.57;;;;;;;2.52;100.00;99022.56;4970062;28;20053;-63
2022/04/12 02:27:00;;;;;;;12.27;7.18;;;;;;;2.55;100.00;99021.47;4969642;28;20054;-63
2022/04/12 02:29:26;;;;;;;13.10;6.80;;;;;;;2.54;100.00;99015.28;4969719;28;20395;-62
2022/04/12 02:31:52;;;;;;;12.77;6.93;;;;;;;2.53;100.00;99018.94;4969841;28;20418;-63
2022/04/12 02:34:17;;;;;;;12.73;6.78;;;;;;;2.41;100.00;99003.84;4969707;28;20528;-63
2022/04/12 02:36:43;;;;;;;13.55;7.55;;;;;;;2.47;100.00;99003.38;4969917;28;20070;-62
2022/04/12 02:39:09;;;;;;;13.60;7.72;;;;;;;2.57;100.00;99011.56;4970115;28;20045;-63
2022/04/12 02:41:36;;;;;;;13.55;7.57;;;;;;;2.58;100.00;99014.09;4971346;28;20047;-63
2022/04/12 02:44:03;;;;;;;14.30;8.05;;;;;;;2.60;100.00;99027.34;4971403;28;20046;-62
2022/04/12 02:46:29;;;;;;;15.15;7.65;;;;;;;2.59;100.00;99023.78;4969504;28;20082;-62
2022/04/12 02:48:55;;;;;;;12.60;6.82;;;;;;;2.29;100.00;98978.09;4970659;28;20058;-61
2022/04/12 02:51:20;;;;;;;15.02;6.82;;;;;;;2.51;100.00;99015.53;4971002;28;20039;-61
2022/04/12 02:53:47;;;;;;;16.73;8.02;;;;;;;2.53;100.00;99029.59;4973755;28;20411;-62
2022/04/12 02:56:13;;;;;;;14.70;8.63;;;;;;;2.61;100.00;99032.53;4995537;28;20123;-62
2022/04/12 02:58:39;;;;;;;14.50;7.90;;;;;;;2.63;100.00;99027.94;4994155;28;20193;-61
2022/04/12 03:01:04;;;;;;;15.20;7.72;;;;;;;2.49;100.00;99011.28;4992480;28;20566;-62
2022/04/12 03:03:30;;;;;;;16.05;8.80;;;;;;;2.65;100.00;99023.34;4992322;28;20141;-62
2022/04/12 03:05:56;;;;;;;17.52;8.48;;;;;;;2.51;100.00;98977.31;4992732;28;20481;-62
2022/04/12 03:08:22;;;;;;;16.02;8.85;;;;;;;2.57;100.00;98980.38;4992395;28;20359;-62
2022/04/12 03:10:48;;;;;;;22.80;10.15;;;;;;;2.56;100.00;99004.50;4993940;28;20088;-61
2022/04/12 03:13:14;;;;;;;17.60;8.98;;;;;;;2.69;100.00;99018.59;4992344;28;20110;-62
2022/04/12 03:15:40;;;;;;;17.27;8.95;;;;;;;2.50;100.00;98989.81;4993618;28;20050;-62
2022/04/12 03:18:06;;;;;;;17.23;9.25;;;;;;;2.61;100.00;99013.88;4991976;28;20046;-63
2022/04/12 03:20:33;;;;;;;15.30;6.70;;;;;;;2.47;100.00;98990.03;4993531;28;20133;-63
2022/04/12 03:22:59;;;;;;;16.83;9.50;;;;;;;2.68;100.00;99016.06;4992188;28;20192;-61
2022/04/12 03:25:25;;;;;;;17.92;9.35;;;;;;;2.74;100.00;99015.59;4993259;28;20411;-62
2022/04/12 03:27:50;;;;;;;16.92;9.55;;;;;;;2.78;100.00;99019.72;4992126;28;20237;-62
2022/04/12 03:30:16;;;;;;;21.70;10.15;;;;;;;2.82;100.00;99024.72;4991985;28;20181;-63
2022/04/12 03:32:42;;;;;;;19.98;9.45;;;;;;;2.73;100.00;99020.06;4991894;28;20390;-63
2022/04/12 03:35:09;;;;;;;19.88;10.20;;;;;;;2.72;100.00;99012.19;4993505;28;20042;-62
2022/04/12 03:37:35;;;;;;;20.05;9.05;;;;;;;2.68;100.00;99011.59;4959296;28;20069;-63
2022/04/12 03:40:01;;;;;;;22.38;10.00;;;;;;;2.81;100.00;99016.81;4959480;28;20054;-64
2022/04/12 03:42:28;;;;;;;18.10;8.60;;;;;;;2.72;100.00;99012.19;4993018;28;20496;-61
2022/04/12 03:44:54;;;;;;;22.50;10.45;;;;;;;2.82;100.00;99013.19;4943478;28;20201;-63
2022/04/12 03:47:20;;;;;;;22.52;9.27;;;;;;;2.85;100.00;99031.63;4991643;28;20046;-63
2022/04/12 03:49:46;;;;;;;21.75;10.50;;;;;;;2.86;100.00;99014.66;4991337;28;20050;-63
2022/04/12 03:52:11;;;;;;;20.63;10.90;;;;;;;2.93;100.00;99020.38;4958734;28;20119;-63
2022/04/12 03:54:37;;;;;;;20.98;10.50;;;;;;;2.92;100.00;99024.00;4991172;28;20042;-63
2022/04/12 03:57:03;;;;;;;21.70;10.68;;;;;;;2.72;100.00;98996.19;4991300;28;20128;-63
2022/04/12 03:59:29;;;;;;;20.92;10.32;;;;;;;2.72;100.00;99022.88;4974563;28;20493;-63
2022/04/12 04:01:55;;;;;;;23.00;10.73;;;;;;;2.82;100.00;99029.22;4950349;28;20109;-64
2022/04/12 04:04:21;;;;;;;21.88;10.75;;;;;;;2.74;100.00;99027.09;4970298;28;20070;-66
2022/04/12 04:06:47;;;;;;;19.92;10.35;;;;;;;2.78;100.00;99030.38;4945915;28;20055;-63
2022/04/12 04:09:12;;;;;;;21.70;10.13;;;;;;;2.62;100.00;98996.88;4969583;28;20093;-65
2022/04/12 04:11:38;;;;;;;22.23;11.88;;;;;;;3.01;100.00;99040.16;4972783;28;20509;-65
2022/04/12 04:14:09;;;;;;;22.98;11.25;;;;;;;3.05;100.00;99025.59;4939762;28;20043;-65
2022/04/12 04:16:35;;;;;;;21.15;11.15;;;;;;;3.04;100.00;99050.63;4969726;28;20062;-68
2022/04/12 04:19:01;;;;;;;20.70;9.07;;;;;;;2.94;100.00;99038.94;4976221;28;20355;-63
2022/04/12 04:21:26;;;;;;;24.58;12.20;;;;;;;2.92;100.00;99030.19;4974533;28;20478;-61
2022/04/12 04:23:52;;;;;;;27.65;10.95;;;;;;;2.78;100.00;99022.38;4975703;28;20472;-64
2022/04/12 04:26:18;;;;;;;25.58;11.27;;;;;;;2.80;100.00;99031.13;4978321;28;20430;-61
2022/04/12 04:28:44;;;;;;;27.67;11.93;;;;;;;3.04;100.00;99039.94;4956815;28;20060;-62
2022/04/12 04:31:11;;;;;;;23.55;11.38;;;;;;;3.01;100.00;99033.97;4985411;28;20149;-67
2022/04/12 04:33:37;;;;;;;30.75;11.77;;;;;;;2.97;100.00;99038.72;4956607;28;20062;-64
2022/04/12 04:36:03;;;;;;;27.95;11.00;;;;;;;2.97;100.00;99041.38;4979157;28;20486;-65
2022/04/12 04:38:28;;;;;;;28.00;11.65;;;;;;;2.95;100.00;99040.63;4954919;28;20145;-64
2022/04/12 04:40:54;;;;;;;25.95;12.05;;;;;;;3.06;100.00;99040.66;4955028;28;20042;-64
2022/04/12 04:43:20;;;;;;;27.35;12.68;;;;;;;3.16;100.00;99037.28;4970017;28;20145;-64
2022/04/12 04:45:46;;;;;;;26.35;12.77;;;;;;;3.13;100.00;99035.69;4970631;28;20515;-64
2022/04/12 04:48:12;;;;;;;27.52;12.68;;;;;;;3.22;100.00;99042.13;4954248;28;20124;-64
2022/04/12 04:50:38;;;;;;;23.98;10.20;;;;;;;3.10;100.00;99020.75;4986745;28;20050;-64
2022/04/12 04:53:06;;;;;;;30.55;12.52;;;;;;;3.33;100.00;99028.81;4954289;28;20471;-63
2022/04/12 04:55:35;;;;;;;26.73;12.07;;;;;;;3.28;100.00;99025.63;4954612;28;20502;-64
2022/04/12 04:58:01;;;;;;;28.70;12.68;;;;;;;3.27;100.00;99031.94;4970545;28;20640;-64
2022/04/12 05:00:32;;;;;;;28.73;12.80;;;;;;;3.31;100.00;99025.38;4985889;28;20415;-63
2022/04/12 05:02:58;;;;;;;29.33;14.27;;;;;;;3.45;100.00;99017.13;4972321;28;20059;-63
2022/04/12 05:05:25;;;;;;;27.67;13.98;;;;;;;3.50;100.00;99025.63;4954626;28;20046;-63
2022/04/12 05:07:53;;;;;;;31.08;13.55;;;;;;;3.45;100.00;99019.81;4970690;28;20055;-64
2022/04/12 05:10:20;;;;;;;28.50;13.40;;;;;;;3.37;100.00;99008.88;4970431;28;20537;-64
2022/04/12 05:12:46;;;;;;;27.85;13.48;;;;;;;3.38;100.00;99015.91;4986649;28;20082;-64
2022/04/12 05:15:12;;;;;;;38.38;14.85;;;;;;;3.37;100.00;99030.25;4953976;28;20071;-64
2022/04/12 05:17:38;;;;;;;26.92;11.00;;;;;;;3.25;100.00;99033.88;4986405;28;20132;-63
2022/04/12 05:20:09;;;;;;;31.92;14.32;;;;;;;3.29;100.00;99013.97;4953088;28;20459;-63
2022/04/12 05:22:35;;;;;;;29.20;14.13;;;;;;;3.47;100.00;99014.31;4970332;28;20091;-65
2022/04/12 05:25:01;;;;;;;35.95;15.82;;;;;;;3.68;100.00;99041.16;4971382;28;20058;-62
2022/04/12 05:27:34;;;;;;;35.60;13.98;;;;;;;3.84;100.00;99039.00;4953742;28;20485;-64
2022/04/12 05:30:01;;;;;;;31.42;13.80;;;;;;;3.84;100.00;99050.53;4969918;28;20414;-64
2022/04/12 05:32:29;;;;;;;30.23;13.48;;;;;;;3.84;100.00;99055.03;4953859;28;20070;-64
2022/04/12 05:34:55;;;;;;;31.77;15.02;;;;;;;3.81;100.00;99049.91;4970245;28;20043;-63
2022/04/12 05:37:21;;;;;;;33.38;17.13;;;;;;;3.82;100.00;99047.09;4971478;28;20065;-63
2022/04/12 05:39:46;;;;;;;38.40;16.33;;;;;;;3.93;100.00;99051.59;4971178;28;20061;-63
2022/04/12 05:42:12;;;;;;;35.58;19.23;;;;;;;4.03;100.00;99047.22;4969442;28;20043;-64
2022/04/12 05:44:38;;;;;;;42.22;20.33;;;;;;;3.88;100.00;99056.47;4971471;28;20398;-63
2022/04/12 05:47:04;;;;;;;43.00;19.83;;;;;;;3.89;100.00;99060.84;4970001;28;20042;-63
2022/04/12 05:49:31;;;;;;;44.17;20.60;;;;;;;3.94;100.00;99049.75;4971380;28;20050;-63
2022/04/12 05:51:57;;;;;;;44.65;22.50;;;;;;;4.08;100.00;99045.00;4971503;28;20043;-64
2022/04/12 05:54:23;;;;;;;45.58;22.65;;;;;;;3.93;100.00;99027.53;4971363;28;20051;-63
2022/04/12 05:56:50;;;;;;;45.90;24.08;;;;;;;4.19;100.00;99043.28;4971548;28;20047;-61
2022/04/12 05:59:16;;;;;;;42.97;21.48;;;;;;;4.20;100.00;99029.75;4986199;28;20046;-63
2022/04/12 06:01:42;;;;;;;40.63;21.17;;;;;;;4.32;100.00;99025.25;4971380;28;20066;-64
2022/04/12 06:04:08;;;;;;;38.20;19.33;;;;;;;4.34;100.00;99020.59;4969841;28;20057;-64
2022/04/12 06:06:34;;;;;;;39.75;20.20;;;;;;;4.40;100.00;99022.78;4971595;28;20035;-64
2022/04/12 06:09:01;;;;;;;38.20;17.40;;;;;;;4.35;100.00;99022.28;4971773;28;20054;-68
2022/04/12 06:11:27;;;;;;;39.17;16.70;;;;;;;4.32;100.00;99026.09;4970944;28;20047;-64
2022/04/12 06:13:53;;;;;;;38.40;16.33;;;;;;;4.64;100.00;99027.03;4985910;28;20073;-63
2022/04/12 06:16:19;;;;;;;32.72;14.57;;;;;;;4.65;100.00;99021.56;4937704;28;20356;-63
2022/04/12 06:18:45;;;;;;;34.03;15.85;;;;;;;4.84;100.00;99039.59;4971444;28;20077;-63
2022/04/12 06:21:11;;;;;;;32.53;16.98;;;;;;;4.77;100.00;99017.00;4971080;28;20043;-63
2022/04/12 06:23:37;;;;;;;34.28;16.48;;;;;;;4.63;100.00;99020.84;4969438;28;20050;-64
2022/04/12 06:26:03;;;;;;;36.00;16.23;;;;;;;4.69;100.00;99016.81;4971638;28;20447;-62
2022/04/12 06:28:30;;;;;;;38.55;16.60;;;;;;;4.76;100.00;99026.88;4953705;28;20145;-63
2022/04/12 06:30:59;;;;;;;35.85;16.65;;;;;;;4.75;100.00;99035.88;4954223;28;20042;-63
2022/04/12 06:33:26;;;;;;;39.13;17.40;;;;;;;4.91;100.00;99035.44;4953992;28;20086;-64
2022/04/12 06:35:52;;;;;;;30.98;16.85;;;;;;;4.89;100.00;99031.16;4969640;28;20050;-65
2022/04/12 06:38:18;;;;;;;34.17;17.25;;;;;;;4.95;100.00;99047.56;4986205;28;20058;-64
2022/04/12 06:40:45;;;;;;;35.60;17.00;;;;;;;4.91;100.00;99040.78;4971343;28;20050;-64
2022/04/12 06:43:11;;;;;;;34.88;16.27;;;;;;;4.90;100.00;99044.44;4971566;28;20054;-62
2022/04/12 06:45:40;;;;;;;39.35;17.95;;;;;;;4.89;100.00;99048.09;4971094;28;20517;-63
2022/04/12 06:48:06;;;;;;;36.05;15.77;;;;;;;4.90;100.00;99041.78;4986038;28;20556;-64
2022/04/12 06:50:32;;;;;;;33.30;17.33;;;;;;;4.88;100.00;99046.41;4953534;28;20093;-65
2022/04/12 06:52:59;;;;;;;32.92;15.52;;;;;;;4.90;100.00;99048.94;4953487;28;20336;-64
2022/04/12 06:55:26;;;;;;;38.05;16.73;;;;;;;4.88;100.00;99057.09;4985762;28;20332;-64
2022/04/12 06:57:52;;;;;;;35.13;17.90;;;;;;;5.13;100.00;99055.88;4970923;28;20051;-62
2022/04/12 07:00:18;;;;;;;35.00;17.80;;;;;;;5.02;100.00;99048.75;4969503;28;20038;-63
2022/04/12 07:02:44;;;;;;;41.50;17.63;;;;;;;5.15;100.00;99047.69;4970553;28;20058;-63
2022/04/12 07:05:10;;;;;;;34.55;18.23;;;;;;;5.26;100.00;99042.25;4953486;28;20035;-64
2022/04/12 07:07:37;;;;;;;39.17;18.00;;;;;;;5.45;100.00;99039.69;4985591;28;20078;-63
2022/04/12 07:10:07;;;;;;;38.40;21.23;;;;;;;5.27;100.00;99047.50;4969257;28;20042;-64
2022/04/12 07:12:33;;;;;;;43.28;19.02;;;;;;;5.39;100.00;99053.63;4969350;28;20074;-63
2022/04/12 07:14:59;;;;;;;34.88;18.20;;;;;;;5.52;100.00;99048.91;4952917;28;20051;-63
2022/04/12 07:17:24;;;;;;;38.25;18.25;;;;;;;5.62;100.00;99048.94;4970620;28;20050;-63
2022/04/12 07:19:50;;;;;;;37.45;17.58;;;;;;;5.57;100.00;99056.53;4985271;28;20090;-64
2022/04/12 07:22:16;;;;;;;35.92;17.13;;;;;;;5.79;99.38;99055.50;4969815;28;20051;-64
2022/04/12 07:24:42;;;;;;;34.05;16.05;;;;;;;5.60;100.00;99042.03;4954531;28;20396;-65
2022/04/12 07:27:08;;;;;;;29.63;15.93;;;;;;;5.66;100.00;99046.81;4954273;28;20554;-64
2022/04/12 07:29:34;;;;;;;33.20;17.55;;;;;;;5.86;100.00;99056.66;4969332;28;20053;-62
2022/04/12 07:32:00;;;;;;;42.60;18.25;;;;;;;5.96;99.69;99065.63;4969080;28;20179;-64
2022/04/12 07:34:26;;;;;;;34.00;17.10;;;;;;;6.10;99.03;99071.56;4968996;28;20130;-64
2022/04/12 07:36:55;;;;;;;35.60;18.02;;;;;;;5.90;99.71;99074.16;4953035;28;20067;-63
2022/04/12 07:39:22;;;;;;;39.42;18.52;;;;;;;5.85;100.00;99071.06;4970978;28;20395;-63
2022/04/12 07:41:48;;;;;;;39.60;20.13;;;;;;;6.02;99.38;99064.22;4974039;28;20051;-63
2022/04/12 07:44:15;;;;;;;39.70;19.10;;;;;;;6.23;99.04;99077.53;4974109;28;20086;-64
2022/04/12 07:46:41;;;;;;;43.95;21.13;;;;;;;6.16;98.96;99054.94;4972010;28;20122;-64
2022/04/12 07:49:07;;;;;;;39.75;21.30;;;;;;;6.36;98.92;99069.22;4972692;28;20202;-64
2022/04/12 07:51:33;;;;;;;38.58;19.40;;;;;;;6.55;97.97;99089.91;4972190;28;20259;-66
2022/04/12 07:54:01;;;;;;;41.35;20.42;;;;;;;6.57;97.45;99085.22;4940124;28;20548;-64
2022/04/12 07:56:27;;;;;;;39.38;20.02;;;;;;;6.64;96.44;99087.22;4972690;28;20039;-63
2022/04/12 07:58:53;;;;;;;41.38;20.83;;;;;;;6.45;97.78;99089.88;4956390;28;20076;-64
2022/04/12 08:01:19;;;;;;;40.67;21.35;;;;;;;6.52;96.82;99078.44;4973619;28;20137;-65
2022/04/12 08:03:45;;;;;;;44.90;20.42;;;;;;;6.59;96.68;99086.78;4956056;28;20083;-63
2022/04/12 08:06:10;;;;;;;46.75;20.33;;;;;;;6.53;97.30;99085.50;4988127;28;20042;-64
2022/04/12 08:08:36;;;;;;;45.75;20.80;;;;;;;6.68;96.30;99077.03;4973353;28;20479;-64
2022/04/12 08:11:02;;;;;;;44.78;21.73;;;;;;;6.81;95.64;99088.34;4955802;28;20042;-64
2022/04/12 08:13:29;;;;;;;40.95;21.15;;;;;;;6.86;95.99;99083.41;4985491;28;20093;-64
2022/04/12 08:15:55;;;;;;;45.40;20.65;;;;;;;6.95;95.12;99069.13;4974773;28;20608;-63
2022/04/12 08:18:21;;;;;;;41.22;19.67;;;;;;;7.09;94.04;99075.03;4992025;28;20061;-64
2022/04/12 08:20:50;;;;;;;40.58;19.65;;;;;;;6.94;94.38;99063.88;4992442;28;20418;-64
2022/04/12 08:23:16;;;;;;;44.72;19.90;;;;;;;6.91;95.28;99067.72;4975122;28;20463;-63
2022/04/12 08:25:43;;;;;;;37.90;20.42;;;;;;;7.11;95.16;99065.84;4991294;28;20105;-64
2022/04/12 08:28:09;;;;;;;59.40;20.70;;;;;;;6.95;92.95;99026.13;4992239;28;20240;-64
2022/04/12 08:30:36;;;;;;;40.60;21.05;;;;;;;7.29;92.44;99071.34;4990387;28;20048;-63
2022/04/12 08:33:02;;;;;;;47.38;20.80;;;;;;;7.49;90.76;99070.31;4990985;28;20042;-64
2022/04/12 08:35:28;;;;;;;47.83;21.08;;;;;;;7.43;92.43;99051.22;4990883;28;20137;-63
2022/04/12 08:37:55;;;;;;;44.22;22.08;;;;;;;7.65;90.71;99063.47;4990587;28;20054;-63
2022/04/12 08:40:21;;;;;;;39.30;19.52;;;;;;;7.43;91.06;99045.84;4990808;28;20121;-64
2022/04/12 08:42:47;;;;;;;46.13;20.63;;;;;;;7.19;92.91;99065.13;4991049;28;20046;-63
2022/04/12 08:45:13;;;;;;;42.80;21.73;;;;;;;7.75;91.77;99061.56;4990550;28;20609;-64
2022/04/12 08:47:40;;;;;;;38.20;20.23;;;;;;;8.16;89.58;99052.16;4990757;28;20138;-63
2022/04/12 08:50:08;;;;;;;38.20;19.95;;;;;;;8.46;87.29;99050.16;4989675;28;20038;-64
2022/04/12 08:52:35;;;;;;;38.85;19.08;;;;;;;8.96;86.05;99043.38;4974411;28;20046;-64
2022/04/12 08:55:02;;;;;;;34.13;17.52;;;;;;;8.47;86.11;99034.84;4990328;28;20502;-64
2022/04/12 08:57:29;;;;;;;38.35;20.10;;;;;;;9.05;84.49;99050.53;4990386;28;20125;-62
2022/04/12 08:59:55;;;;;;;39.53;20.52;;;;;;;9.30;84.23;99038.91;4991538;28;20517;-65
2022/04/12 09:02:21;;;;;;;41.60;19.33;;;;;;;9.35;83.12;99050.06;4992054;28;20069;-65
2022/04/12 09:04:48;;;;;;;35.13;19.15;;;;;;;9.26;84.04;99059.13;4974333;28;20127;-64
2022/04/12 09:07:13;;;;;;;38.63;18.95;;;;;;;9.28;82.96;99046.31;4989895;28;20046;-64
2022/04/12 09:09:41;;;;;;;40.97;19.55;;;;;;;9.09;83.57;99062.69;4992514;28;20095;-64
2022/04/12 09:12:12;;;;;;;36.20;19.33;;;;;;;8.99;83.53;99043.91;4992653;28;20046;-63
2022/04/12 09:14:55;;;;;;;40.40;19.05;;;;;;;9.58;80.89;99057.63;4974667;28;20042;-64
2022/04/12 09:17:34;;;;;;;39.17;19.92;;;;;;;9.32;81.56;99069.25;4991573;28;20058;-63
2022/04/12 09:20:01;;;;;;;39.50;19.13;;;;;;;9.70;81.43;99067.16;4975658;28;20136;-63
2022/04/12 09:22:28;;;;;;;39.20;20.45;;;;;;;9.74;80.29;99065.00;4991744;28;20054;-64
2022/04/12 09:24:57;;;;;;;38.70;19.25;;;;;;;10.23;78.65;99073.31;4975916;28;20053;-64
2022/04/12 09:27:29;;;;;;;36.05;18.17;;;;;;;10.25;77.70;99065.91;4975773;28;20061;-65
2022/04/12 09:29:59;;;;;;;36.30;19.50;;;;;;;10.00;77.45;99067.66;4993254;28;20038;-64
2022/04/12 09:32:28;;;;;;;36.58;20.67;;;;;;;10.07;77.34;99068.69;4991429;28;20062;-66
2022/04/12 09:34:55;;;;;;;37.03;20.08;;;;;;;9.85;77.64;99068.25;4992567;28;20061;-70
2022/04/12 09:37:34;;;;;;;38.13;19.65;;;;;;;9.49;79.29;99069.41;4974977;28;20070;-69
2022/04/12 09:40:00;;;;;;;32.03;18.83;;;;;;;10.31;76.93;99071.53;4991385;28;20070;-65
2022/04/12 09:42:58;;;;;;;36.22;20.77;;;;;;;10.64;76.48;99066.22;4987414;28;20047;-64
2022/04/12 09:45:26;;;;;;;34.55;17.98;;;;;;;10.55;74.91;99067.19;4967916;28;20470;-64
2022/04/12 09:48:01;;;;;;;39.20;18.80;;;;;;;10.51;74.35;99055.88;4970495;28;20530;-64
2022/04/12 09:50:29;;;;;;;36.65;20.33;;;;;;;10.44;75.26;99059.41;4971753;28;20051;-64
2022/04/12 09:53:01;;;;;;;39.05;20.08;;;;;;;10.31;76.76;99086.88;4970040;28;20050;-63
2022/04/12 09:55:41;;;;;;;40.13;20.80;;;;;;;10.07;77.35;99079.50;4970522;28;20130;-64
2022/04/12 09:58:17;;;;;;;37.08;20.00;;;;;;;10.05;78.40;99086.91;4986637;28;20051;-64
2022/04/12 10:00:47;;;;;;;34.40;20.70;;;;;;;9.70;78.76;99067.16;4986473;28;20046;-66
2022/04/12 10:03:14;;;;;;;41.13;20.55;;;;;;;9.63;78.56;99080.44;4954308;28;20510;-64
2022/04/12 10:05:41;;;;;;;38.65;20.50;;;;;;;9.97;77.79;99094.97;4986440;28;20567;-63
2022/04/12 10:08:10;;;;;;;41.65;20.80;;;;;;;10.07;78.21;99095.69;4970005;28;20153;-64
2022/04/12 10:10:35;;;;;;;39.42;21.35;;;;;;;9.72;79.14;99092.13;4970026;28;20051;-64
2022/04/12 10:13:01;;;;;;;40.00;22.70;;;;;;;10.20;77.69;99079.91;4969529;28;20078;-64
2022/04/12 10:15:28;;;;;;;42.75;22.08;;;;;;;10.47;76.23;99091.50;4969544;28;20495;-63
2022/04/12 10:17:54;;;;;;;40.38;23.35;;;;;;;10.67;75.75;99098.28;4971108;28;20154;-64
2022/04/12 10:20:21;;;;;;;38.15;22.83;;;;;;;11.04;75.57;99102.41;4971101;28;20054;-65
2022/04/12 10:22:48;;;;;;;39.92;23.20;;;;;;;10.91;74.63;99075.88;4969686;28;20051;-64
2022/04/12 10:25:24;;;;;;;43.00;21.17;;;;;;;11.28;73.92;99093.47;4953549;28;20424;-64
2022/04/12 10:27:52;;;;;;;37.50;22.17;;;;;;;11.26;73.06;99093.66;4953576;28;20141;-63
2022/04/12 10:30:18;;;;;;;41.60;19.95;;;;;;;11.60;72.29;99095.31;4937354;28;20050;-64
2022/04/12 10:33:16;;;;;;;36.35;19.50;;;;;;;11.97;71.01;99091.19;4970837;28;20107;-64
2022/04/12 10:35:45;;;;;;;38.90;21.92;;;;;;;11.56;71.61;99097.50;4969524;28;20049;-64
2022/04/12 10:38:12;;;;;;;39.47;20.80;;;;;;;11.61;72.70;99102.41;4970901;28;20074;-64
2022/04/12 10:40:46;;;;;;;44.67;21.23;;;;;;;11.44;72.35;99089.91;4953817;28;20550;-65
2022/04/12 10:43:15;;;;;;;40.17;21.02;;;;;;;11.49;72.20;99099.22;4938102;28;20058;-64
2022/04/12 10:45:46;;;;;;;37.25;22.33;;;;;;;11.37;73.04;99088.88;4969598;28;20055;-65
2022/04/12 10:48:19;;;;;;;41.15;21.50;;;;;;;11.25;72.64;99086.53;4953083;28;20050;-64
2022/04/12 10:50:46;;;;;;;41.95;21.80;;;;;;;11.44;73.77;99073.66;4969844;28;20051;-64
2022/04/12 10:53:12;;;;;;;41.88;22.02;;;;;;;11.08;73.55;99098.38;4953606;28;20213;-64
2022/04/12 10:55:43;;;;;;;38.63;20.70;;;;;;;11.86;71.34;99078.88;4984192;28;20047;-63
2022/04/12 10:58:12;;;;;;;38.95;19.90;;;;;;;11.94;71.34;99091.53;4969233;28;20470;-64
2022/04/12 11:00:41;;;;;;;43.95;21.98;;;;;;;11.65;71.49;99081.25;4970594;28;20074;-64
2022/04/12 11:03:08;;;;;;;39.65;20.98;;;;;;;11.43;72.32;99064.69;4970729;28;20056;-64
2022/04/12 11:05:37;;;;;;;54.83;21.30;;;;;;;11.41;72.80;99041.53;4969656;28;20070;-64
2022/04/12 11:08:08;;;;;;;45.85;22.08;;;;;;;11.29;72.04;99074.34;4969846;28;20137;-64
2022/04/12 11:10:33;;;;;;;40.45;20.80;;;;;;;11.32;73.07;99065.88;5002091;28;20175;-64
2022/04/12 11:13:10;;;;;;;43.22;20.75;;;;;;;10.92;74.59;99076.72;4969469;28;20430;-64
2022/04/12 11:15:37;;;;;;;37.88;20.40;;;;;;;11.01;75.00;99035.16;4973052;28;20047;-64
2022/04/12 11:18:10;;;;;;;50.72;22.77;;;;;;;11.26;73.74;99055.78;4973129;28;20054;-64
2022/04/12 11:20:38;;;;;;;38.97;20.85;;;;;;;10.98;73.91;99051.72;4989156;28;20155;-64
2022/04/12 11:23:09;;;;;;;40.25;21.60;;;;;;;10.88;74.07;99051.03;4973376;28;20046;-65